Time;durP1;ratioP1;P1;durP2;ratioP2;P2;SDS_P1;SDS_P2;PMS_P1;PMS_P2;Temp;Humidity;BMP_temperature;BMP_pressure;BME280_temperature;BME280_humidity;BME280_pressure;Samples;Min_cycle;Max_cycle;Signal;HPM_P1;HPM_P2
2022/12/19 00:00:43;;;;;;;;;;;15.40;35.60;;;;;;8332960;28;19975;-42
2022/12/19 00:04:43;;;;;;;;;;;15.40;35.70;;;;;;8332162;28;20267;-42
2022/12/19 00:08:44;;;;;;;;;;;15.40;35.70;;;;;;8332649;28;19913;-43
2022/12/19 00:12:45;;;;;;;;;;;15.40;35.80;;;;;;8333178;28;19917;-42
2022/12/19 00:16:45;;;;;;;;;;;15.40;35.70;;;;;;8332353;28;19925;-42
2022/12/19 00:20:56;;;;;;;;;;;15.40;35.80;;;;;;8332691;28;19950;-42
2022/12/19 00:24:56;;;;;;;;;;;15.40;35.70;;;;;;8332451;28;19917;-42
2022/12/19 00:28:58;;;;;;;;;;;15.40;35.70;;;;;;8331583;28;20000;-42
2022/12/19 00:32:58;;;;;;;;;;;15.40;35.70;;;;;;8332296;28;19996;-42
2022/12/19 00:36:59;;;;;;;;;;;15.40;35.70;;;;;;8331778;28;19948;-42
2022/12/19 00:41:09;;;;;;;;;;;15.40;35.70;;;;;;8331312;28;20055;-44
2022/12/19 00:45:10;;;;;;;;;;;15.40;35.70;;;;;;8331666;28;19917;-42
2022/12/19 00:49:11;;;;;;;;;;;15.50;35.70;;;;;;8331188;28;19952;-42
2022/12/19 00:53:11;;;;;;;;;;;15.40;35.70;;;;;;8331589;28;20039;-43
2022/12/19 00:57:12;;;;;;;;;;;15.40;35.60;;;;;;8331259;28;20052;-42
2022/12/19 01:01:14;;;;;;;;;;;15.50;35.60;;;;;;8330752;28;20002;-43
2022/12/19 01:05:14;;;;;;;;;;;15.50;35.70;;;;;;8329925;28;19924;-43
2022/12/19 01:09:15;;;;;;;;;;;15.50;35.60;;;;;;8331264;28;19913;-43
2022/12/19 01:13:16;;;;;;;;;;;15.50;35.60;;;;;;8330687;28;19995;-42
2022/12/19 01:17:16;;;;;;;;;;;15.50;35.60;;;;;;8330407;28;20032;-43
2022/12/19 01:21:17;;;;;;;;;;;15.40;35.60;;;;;;8330640;28;20274;-43
2022/12/19 01:25:17;;;;;;;;;;;15.40;35.60;;;;;;8330298;28;19917;-43
2022/12/19 01:29:18;;;;;;;;;;;15.40;35.60;;;;;;8330826;28;19920;-44
2022/12/19 01:33:19;;;;;;;;;;;15.40;35.60;;;;;;8330839;28;19917;-43
2022/12/19 01:37:20;;;;;;;;;;;15.40;35.60;;;;;;8329940;28;20381;-44
2022/12/19 01:41:20;;;;;;;;;;;15.40;35.70;;;;;;8330255;28;20003;-43
2022/12/19 01:45:28;;;;;;;;;;;15.40;35.60;;;;;;8330280;28;19918;-43
2022/12/19 01:49:34;;;;;;;;;;;15.40;35.70;;;;;;8329803;28;19924;-43
2022/12/19 01:53:36;;;;;;;;;;;15.40;35.70;;;;;;8330577;28;19932;-43
2022/12/19 01:57:37;;;;;;;;;;;15.40;35.70;;;;;;8329809;28;19925;-42
2022/12/19 02:01:38;;;;;;;;;;;15.40;35.60;;;;;;8329477;28;19924;-42
2022/12/19 02:05:39;;;;;;;;;;;15.40;35.60;;;;;;8330136;28;20378;-43
2022/12/19 02:09:40;;;;;;;;;;;15.40;35.70;;;;;;8327537;28;19932;-43
2022/12/19 02:13:41;;;;;;;;;;;15.40;35.70;;;;;;8329426;28;19917;-43
2022/12/19 02:17:57;;;;;;;;;;;15.40;35.70;;;;;;8329560;28;19925;-44
2022/12/19 02:22:00;;;;;;;;;;;15.40;35.70;;;;;;8329569;28;19953;-44
2022/12/19 02:26:10;;;;;;;;;;;15.40;35.70;;;;;;8329294;28;19924;-43
2022/12/19 02:30:17;;;;;;;;;;;15.40;35.70;;;;;;8332828;28;20294;-43
2022/12/19 02:34:20;;;;;;;;;;;15.40;35.70;;;;;;8335608;28;20318;-43
2022/12/19 02:38:36;;;;;;;;;;;15.40;35.70;;;;;;8335950;28;19963;-43
2022/12/19 02:42:38;;;;;;;;;;;15.40;35.80;;;;;;8335453;28;19917;-44
2022/12/19 02:46:40;;;;;;;;;;;15.40;35.80;;;;;;8335038;28;20428;-43
2022/12/19 02:50:43;;;;;;;;;;;15.40;35.70;;;;;;8335490;28;19921;-43
2022/12/19 02:54:43;;;;;;;;;;;15.40;35.80;;;;;;8335219;28;20374;-42
2022/12/19 02:58:56;;;;;;;;;;;15.40;35.80;;;;;;8334712;28;19928;-43
2022/12/19 03:03:08;;;;;;;;;;;15.40;35.70;;;;;;8334821;28;20436;-42
2022/12/19 03:07:28;;;;;;;;;;;15.40;35.70;;;;;;8334353;28;20405;-42
2022/12/19 03:11:33;;;;;;;;;;;15.40;35.70;;;;;;8334631;28;20443;-43
2022/12/19 03:15:33;;;;;;;;;;;15.40;35.80;;;;;;8334484;28;19923;-43
2022/12/19 03:19:35;;;;;;;;;;;15.40;35.70;;;;;;8334323;28;19913;-43
2022/12/19 03:23:35;;;;;;;;;;;15.40;35.80;;;;;;8334247;28;20288;-43
2022/12/19 03:27:36;;;;;;;;;;;15.40;35.70;;;;;;8334078;28;19924;-43
2022/12/19 03:31:38;;;;;;;;;;;15.40;35.70;;;;;;8333586;28;19917;-43
2022/12/19 03:35:39;;;;;;;;;;;15.30;35.70;;;;;;8333971;28;20362;-43
2022/12/19 03:39:40;;;;;;;;;;;15.40;35.80;;;;;;8333962;28;19921;-43
2022/12/19 03:43:42;;;;;;;;;;;15.40;35.80;;;;;;8333222;28;19917;-43
2022/12/19 03:47:45;;;;;;;;;;;15.30;35.80;;;;;;8333900;28;19921;-43
2022/12/19 03:51:50;;;;;;;;;;;15.30;35.70;;;;;;8333750;28;20248;-43
2022/12/19 03:55:57;;;;;;;;;;;15.30;35.70;;;;;;8332655;28;19925;-43
2022/12/19 04:00:05;;;;;;;;;;;15.40;35.80;;;;;;8333464;28;19913;-43
2022/12/19 04:04:07;;;;;;;;;;;15.40;35.70;;;;;;8332661;28;19924;-42
2022/12/19 04:08:10;;;;;;;;;;;15.40;35.70;;;;;;8332895;28;19917;-42
2022/12/19 04:12:14;;;;;;;;;;;15.40;35.70;;;;;;8332678;28;19954;-43
2022/12/19 04:16:21;;;;;;;;;;;15.40;36.30;;;;;;8332131;28;19925;-43
2022/12/19 04:20:24;;;;;;;;;;;15.40;35.70;;;;;;8332721;28;19940;-43
2022/12/19 04:24:26;;;;;;;;;;;15.40;36.20;;;;;;8332601;28;19913;-43
2022/12/19 04:28:31;;;;;;;;;;;15.40;35.70;;;;;;8331833;28;19918;-43
2022/12/19 04:32:34;;;;;;;;;;;15.40;35.60;;;;;;8332415;28;19921;-43
2022/12/19 04:36:34;;;;;;;;;;;15.40;35.70;;;;;;8331792;28;19925;-43
2022/12/19 04:40:35;;;;;;;;;;;15.50;35.70;;;;;;8331444;28;19917;-43
2022/12/19 04:44:35;;;;;;;;;;;15.50;35.70;;;;;;8332018;28;19959;-43
2022/12/19 04:48:36;;;;;;;;;;;15.50;35.70;;;;;;8331494;28;20006;-43
2022/12/19 04:52:36;;;;;;;;;;;15.50;35.70;;;;;;8330321;28;19922;-43
2022/12/19 04:56:36;;;;;;;;;;;15.50;35.70;;;;;;8331207;28;19979;-43
2022/12/19 05:00:37;;;;;;;;;;;15.40;35.60;;;;;;8331377;28;19917;-43
2022/12/19 05:04:37;;;;;;;;;;;15.50;35.70;;;;;;8329736;28;20441;-43
2022/12/19 05:08:39;;;;;;;;;;;15.50;35.70;;;;;;8330982;28;19933;-43
2022/12/19 05:12:39;;;;;;;;;;;15.50;35.70;;;;;;8330872;28;19917;-43
2022/12/19 05:16:40;;;;;;;;;;;15.40;35.70;;;;;;8330297;28;20036;-43
2022/12/19 05:20:40;;;;;;;;;;;15.40;35.70;;;;;;8331070;28;20388;-43
2022/12/19 05:24:41;;;;;;;;;;;15.40;35.70;;;;;;8330794;28;19917;-43
2022/12/19 05:28:41;;;;;;;;;;;15.40;35.70;;;;;;8330211;28;19925;-43
2022/12/19 05:32:41;;;;;;;;;;;15.40;35.70;;;;;;8330461;28;20022;-43
2022/12/19 05:36:42;;;;;;;;;;;15.40;35.70;;;;;;8330276;28;20445;-43
2022/12/19 05:40:42;;;;;;;;;;;15.40;35.70;;;;;;8330094;28;20389;-43
2022/12/19 05:44:43;;;;;;;;;;;15.30;35.70;;;;;;8330509;28;19948;-42
2022/12/19 05:48:43;;;;;;;;;;;15.30;35.70;;;;;;8330095;28;19917;-43
2022/12/19 05:52:44;;;;;;;;;;;15.40;35.80;;;;;;8329869;28;19928;-43
2022/12/19 05:56:44;;;;;;;;;;;15.40;35.80;;;;;;8330176;28;19928;-43
2022/12/19 06:00:44;;;;;;;;;;;15.40;35.90;;;;;;8330293;28;19924;-43
2022/12/19 06:04:45;;;;;;;;;;;15.40;35.70;;;;;;8332426;28;19970;-43
2022/12/19 06:08:45;;;;;;;;;;;15.40;35.80;;;;;;8336586;28;19994;-44
2022/12/19 06:12:46;;;;;;;;;;;15.40;35.70;;;;;;8336299;28;19979;-44
2022/12/19 06:16:46;;;;;;;;;;;15.50;35.70;;;;;;8336292;28;20370;-44
2022/12/19 06:20:54;;;;;;;;;;;15.50;35.70;;;;;;8336448;28;20393;-43
2022/12/19 06:24:54;;;;;;;;;;;15.50;35.80;;;;;;8336215;28;19921;-44
2022/12/19 06:28:55;;;;;;;;;;;15.50;35.80;;;;;;8335664;28;20392;-43
2022/12/19 06:32:55;;;;;;;;;;;15.50;35.80;;;;;;8335945;28;19913;-44
2022/12/19 06:36:56;;;;;;;;;;;15.50;35.70;;;;;;8335552;28;20452;-44
2022/12/19 06:45:16;;;;;;;;;;;15.50;35.70;;;;;;8335783;28;19928;-44
2022/12/19 06:49:16;;;;;;;;;;;15.50;35.70;;;;;;8335085;28;20426;-44
2022/12/19 06:53:16;;;;;;;;;;;15.50;35.70;;;;;;8335455;28;19928;-44
2022/12/19 06:57:17;;;;;;;;;;;15.50;35.70;;;;;;8335313;28;19921;-43
2022/12/19 07:01:29;;;;;;;;;;;15.50;35.70;;;;;;8334859;28;19917;-44
2022/12/19 07:05:30;;;;;;;;;;;15.50;35.80;;;;;;8335443;28;20004;-44
2022/12/19 07:09:32;;;;;;;;;;;15.50;35.80;;;;;;8335189;28;19924;-44
2022/12/19 07:13:32;;;;;;;;;;;15.50;35.80;;;;;;8334236;28;19917;-44
2022/12/19 07:17:32;;;;;;;;;;;15.50;35.80;;;;;;8333856;28;19925;-45
2022/12/19 07:21:33;;;;;;;;;;;15.40;35.80;;;;;;8334342;28;19917;-43
2022/12/19 07:25:34;;;;;;;;;;;15.40;35.80;;;;;;8333951;28;19923;-44
2022/12/19 07:29:34;;;;;;;;;;;15.40;35.80;;;;;;8334559;28;19917;-43
2022/12/19 07:33:34;;;;;;;;;;;15.40;36.40;;;;;;8334010;28;20358;-43
2022/12/19 07:37:35;;;;;;;;;;;15.40;35.80;;;;;;8333813;28;20370;-43
2022/12/19 07:41:36;;;;;;;;;;;15.40;35.80;;;;;;8334163;28;19944;-43
2022/12/19 07:45:37;;;;;;;;;;;15.40;35.80;;;;;;8333941;28;19917;-43
2022/12/19 07:49:38;;;;;;;;;;;15.40;35.90;;;;;;8333262;28;19917;-43
2022/12/19 07:53:38;;;;;;;;;;;15.40;35.90;;;;;;8333860;28;19929;-43
2022/12/19 07:57:39;;;;;;;;;;;15.40;35.90;;;;;;8333440;28;19956;-43
2022/12/19 08:01:39;;;;;;;;;;;15.40;35.90;;;;;;8333035;28;19921;-43
2022/12/19 08:05:39;;;;;;;;;;;15.40;35.80;;;;;;8333317;28;19921;-44
2022/12/19 08:09:40;;;;;;;;;;;15.50;35.80;;;;;;8308751;28;19971;-43
2022/12/19 08:13:40;;;;;;;;;;;15.50;35.90;;;;;;8314748;28;20325;-43
2022/12/19 08:17:41;;;;;;;;;;;15.50;35.80;;;;;;8332688;28;19992;-44
2022/12/19 08:21:41;;;;;;;;;;;15.50;35.70;;;;;;8332860;28;19924;-43
2022/12/19 08:25:41;;;;;;;;;;;15.50;35.80;;;;;;8331399;28;19956;-44
2022/12/19 08:29:42;;;;;;;;;;;15.50;35.80;;;;;;8332090;28;19921;-43
2022/12/19 08:33:43;;;;;;;;;;;15.50;35.70;;;;;;8332027;28;19917;-44
2022/12/19 08:37:43;;;;;;;;;;;15.50;35.80;;;;;;8331562;28;19978;-44
2022/12/19 08:41:44;;;;;;;;;;;15.50;35.80;;;;;;8332494;28;19920;-44
2022/12/19 08:45:46;;;;;;;;;;;15.50;35.80;;;;;;8331845;28;19917;-44
2022/12/19 08:49:46;;;;;;;;;;;15.50;35.70;;;;;;8331484;28;19917;-45
2022/12/19 08:53:47;;;;;;;;;;;15.50;35.80;;;;;;8331818;28;20362;-43
2022/12/19 08:57:47;;;;;;;;;;;15.50;35.80;;;;;;8331268;28;19925;-44
2022/12/19 09:01:48;;;;;;;;;;;15.50;35.70;;;;;;8331172;28;20370;-43
2022/12/19 09:05:58;;;;;;;;;;;15.50;35.80;;;;;;8331239;28;19996;-43
2022/12/19 09:09:59;;;;;;;;;;;15.50;35.80;;;;;;8331106;28;20013;-44
2022/12/19 09:13:59;;;;;;;;;;;15.50;35.80;;;;;;8330623;28;19917;-43
2022/12/19 09:18:00;;;;;;;;;;;15.50;35.80;;;;;;8331674;28;20011;-43
2022/12/19 09:22:00;;;;;;;;;;;15.50;35.80;;;;;;8332307;28;19966;-42
2022/12/19 09:26:02;;;;;;;;;;;15.50;35.80;;;;;;8331840;28;19996;-42
2022/12/19 09:30:03;;;;;;;;;;;15.50;35.80;;;;;;8331799;28;19928;-42
2022/12/19 09:34:03;;;;;;;;;;;15.50;35.80;;;;;;8331385;28;19917;-41
2022/12/19 09:38:04;;;;;;;;;;;15.50;35.80;;;;;;8331168;28;19930;-42
2022/12/19 09:42:16;;;;;;;;;;;15.50;35.80;;;;;;8330579;28;19913;-42
2022/12/19 09:46:17;;;;;;;;;;;15.50;35.90;;;;;;8329549;28;19917;-42
2022/12/19 09:50:34;;;;;;;;;;;15.50;35.80;;;;;;8330367;28;19940;-42
2022/12/19 09:54:43;;;;;;;;;;;15.50;35.90;;;;;;8330072;28;19924;-42
2022/12/19 09:58:46;;;;;;;;;;;15.50;35.80;;;;;;8329472;28;19929;-42
2022/12/19 10:02:52;;;;;;;;;;;15.50;35.80;;;;;;8330157;28;20286;-42
2022/12/19 10:06:53;;;;;;;;;;;15.50;35.80;;;;;;8330129;28;20012;-43
2022/12/19 10:10:59;;;;;;;;;;;15.50;35.80;;;;;;8329341;28;19917;-43
2022/12/19 10:15:07;;;;;;;;;;;15.50;35.80;;;;;;8329734;28;19952;-44
2022/12/19 10:19:27;;;;;;;;;;;15.50;35.80;;;;;;8327801;28;19925;-42
2022/12/19 10:23:54;;;;;;;;;;;15.50;35.80;;;;;;8329186;28;19985;-43
2022/12/19 10:27:57;;;;;;;;;;;15.60;36.40;;;;;;8328116;28;19913;-44
2022/12/19 10:32:09;;;;;;;;;;;15.50;35.80;;;;;;8329196;28;20370;-44
2022/12/19 10:36:10;;;;;;;;;;;15.60;35.90;;;;;;8329578;28;20336;-42
2022/12/19 10:40:17;;;;;;;;;;;15.60;35.90;;;;;;8329053;28;19924;-43
2022/12/19 10:44:17;;;;;;;;;;;15.60;35.90;;;;;;8329207;28;19918;-43
2022/12/19 10:48:20;;;;;;;;;;;15.60;35.90;;;;;;8329275;28;20043;-43
2022/12/19 10:52:46;;;;;;;;;;;15.60;35.80;;;;;;8334092;28;20401;-43
2022/12/19 10:56:47;;;;;;;;;;;15.60;35.80;;;;;;8333797;28;19925;-43
2022/12/19 11:01:03;;;;;;;;;;;15.60;35.90;;;;;;8335029;28;19936;-43
2022/12/19 11:05:13;;;;;;;;;;;15.60;35.90;;;;;;8333621;28;20023;-45
2022/12/19 11:09:22;;;;;;;;;;;15.60;35.90;;;;;;8335470;28;19920;-44
2022/12/19 11:13:40;;;;;;;;;;;15.60;35.90;;;;;;8334350;28;19979;-43
2022/12/19 11:17:40;;;;;;;;;;;15.60;35.90;;;;;;8334609;28;19936;-45
2022/12/19 11:21:41;;;;;;;;;;;15.60;35.90;;;;;;8334598;28;20018;-42
2022/12/19 11:25:42;;;;;;;;;;;15.60;35.90;;;;;;8333813;28;19956;-43
2022/12/19 11:29:44;;;;;;;;;;;15.60;35.90;;;;;;8334123;28;19947;-45
2022/12/19 11:33:45;;;;;;;;;;;15.60;35.90;;;;;;8334014;28;19917;-44
2022/12/19 11:37:46;;;;;;;;;;;15.60;35.90;;;;;;8333630;28;20305;-43
2022/12/19 11:41:59;;;;;;;;;;;15.60;35.90;;;;;;8333824;28;19917;-44
2022/12/19 11:46:03;;;;;;;;;;;15.60;35.90;;;;;;8333628;28;19924;-44
2022/12/19 11:50:09;;;;;;;;;;;15.60;35.90;;;;;;8333498;28;20297;-45
2022/12/19 11:54:19;;;;;;;;;;;15.60;35.90;;;;;;8333552;28;20028;-44
2022/12/19 11:58:21;;;;;;;;;;;15.60;35.90;;;;;;8333132;28;19921;-45
2022/12/19 12:02:21;;;;;;;;;;;15.60;35.90;;;;;;8333224;28;20362;-44
2022/12/19 12:06:22;;;;;;;;;;;15.60;35.90;;;;;;8332964;28;19917;-45
2022/12/19 12:10:23;;;;;;;;;;;15.60;35.90;;;;;;8332478;28;20336;-44
2022/12/19 12:14:33;;;;;;;;;;;15.60;35.90;;;;;;8333020;28;19928;-44
2022/12/19 12:18:52;;;;;;;;;;;15.60;35.90;;;;;;8332529;28;19921;-44
2022/12/19 12:23:11;;;;;;;;;;;15.60;35.90;;;;;;8332223;28;19920;-44
2022/12/19 12:27:11;;;;;;;;;;;15.60;35.90;;;;;;8332378;28;19924;-44
2022/12/19 12:31:19;;;;;;;;;;;15.70;36.00;;;;;;8331702;28;19917;-44
2022/12/19 12:35:35;;;;;;;;;;;15.70;35.90;;;;;;8332040;28;19941;-44
2022/12/19 12:39:41;;;;;;;;;;;15.70;36.00;;;;;;8332046;28;20016;-44
2022/12/19 12:43:53;;;;;;;;;;;15.70;35.90;;;;;;8331350;28;19913;-44
2022/12/19 12:47:54;;;;;;;;;;;15.70;36.00;;;;;;8331969;28;19968;-44
2022/12/19 12:51:55;;;;;;;;;;;15.70;36.00;;;;;;8331811;28;20374;-45
2022/12/19 12:55:56;;;;;;;;;;;15.70;35.90;;;;;;8331093;28;19917;-44
2022/12/19 13:00:16;;;;;;;;;;;15.60;35.90;;;;;;8331258;28;19925;-46
2022/12/19 13:04:21;;;;;;;;;;;15.70;35.90;;;;;;8330110;28;20393;-44
2022/12/19 13:08:38;;;;;;;;;;;15.70;35.90;;;;;;8331383;28;19913;-45
2022/12/19 13:13:00;;;;;;;;;;;15.70;36.00;;;;;;8330504;28;19953;-45
2022/12/19 13:17:01;;;;;;;;;;;15.70;36.00;;;;;;8330435;28;20370;-44
2022/12/19 13:21:03;;;;;;;;;;;15.70;36.00;;;;;;8330636;28;20012;-44
2022/12/19 13:25:22;;;;;;;;;;;15.70;36.00;;;;;;8330414;28;19943;-44
2022/12/19 13:29:33;;;;;;;;;;;15.70;36.00;;;;;;8330852;28;19924;-45
2022/12/19 13:33:51;;;;;;;;;;;15.70;36.00;;;;;;8330698;28;19917;-44
2022/12/19 13:38:10;;;;;;;;;;;15.70;36.00;;;;;;8329664;28;19926;-44
2022/12/19 13:46:41;;;;;;;;;;;15.70;36.10;;;;;;8330012;28;19924;-45
2022/12/19 13:50:46;;;;;;;;;;;15.70;36.00;;;;;;8330153;28;20319;-46
2022/12/19 13:54:48;;;;;;;;;;;15.70;36.00;;;;;;8330305;28;20011;-43
2022/12/19 13:59:06;;;;;;;;;;;15.70;36.10;;;;;;8329797;28;19928;-45
2022/12/19 14:03:14;;;;;;;;;;;15.70;36.10;;;;;;8329970;28;19917;-47
2022/12/19 14:07:24;;;;;;;;;;;15.70;36.10;;;;;;8328520;28;19917;-44
2022/12/19 14:11:26;;;;;;;;;;;15.70;36.10;;;;;;8330187;28;19955;-43
2022/12/19 14:15:29;;;;;;;;;;;15.70;36.10;;;;;;8329551;28;20350;-44
2022/12/19 14:19:36;;;;;;;;;;;15.70;36.10;;;;;;8329029;28;19947;-47
2022/12/19 14:23:37;;;;;;;;;;;15.70;36.20;;;;;;8329831;28;19913;-44
2022/12/19 14:27:45;;;;;;;;;;;15.70;36.10;;;;;;8335287;28;20400;-48
2022/12/19 14:31:45;;;;;;;;;;;15.70;36.10;;;;;;8335502;28;20048;-45
2022/12/19 14:35:50;;;;;;;;;;;15.70;36.20;;;;;;8335744;28;20108;-46
2022/12/19 14:39:56;;;;;;;;;;;15.70;36.20;;;;;;8335777;28;20150;-44
2022/12/19 14:43:56;;;;;;;;;;;15.70;36.20;;;;;;8335462;28;20338;-44
2022/12/19 14:47:57;;;;;;;;;;;15.70;36.20;;;;;;8335365;28;19928;-45
2022/12/19 14:51:57;;;;;;;;;;;15.70;36.20;;;;;;8335694;28;19964;-48
2022/12/19 14:56:18;;;;;;;;;;;15.70;36.20;;;;;;8334494;28;19924;-45
2022/12/19 15:00:23;;;;;;;;;;;15.70;36.20;;;;;;8334918;28;19921;-45
2022/12/19 15:04:26;;;;;;;;;;;15.70;36.30;;;;;;8334675;28;19948;-46
2022/12/19 15:08:31;;;;;;;;;;;15.70;36.30;;;;;;8334737;28;20369;-44
2022/12/19 15:17:13;;;;;;;;;;;15.60;36.30;;;;;;8334011;28;20349;-45
2022/12/19 15:21:13;;;;;;;;;;;15.70;36.30;;;;;;8334301;28;20071;-45
2022/12/19 15:25:15;;;;;;;;;;;15.70;36.30;;;;;;8333801;28;19982;-46
2022/12/19 15:29:15;;;;;;;;;;;15.60;36.30;;;;;;8334263;28;20362;-45
2022/12/19 15:33:16;;;;;;;;;;;15.60;36.30;;;;;;8334109;28;20008;-47
2022/12/19 15:37:17;;;;;;;;;;;15.60;36.30;;;;;;8332992;28;20040;-46
2022/12/19 15:41:21;;;;;;;;;;;15.60;36.30;;;;;;8333711;28;19947;-45
2022/12/19 15:45:22;;;;;;;;;;;15.60;36.30;;;;;;8333999;28;19928;-45
2022/12/19 15:49:22;;;;;;;;;;;15.60;36.40;;;;;;8333464;28;19920;-45
2022/12/19 15:53:27;;;;;;;;;;;15.70;36.40;;;;;;8333832;28;19932;-45
2022/12/19 15:57:31;;;;;;;;;;;15.60;36.30;;;;;;8333211;28;19925;-44
2022/12/19 16:01:32;;;;;;;;;;;15.60;36.30;;;;;;8332492;28;20400;-45
2022/12/19 16:05:32;;;;;;;;;;;15.60;36.30;;;;;;8332832;28;19971;-44
2022/12/19 16:09:33;;;;;;;;;;;15.60;36.40;;;;;;8333213;28;20055;-44
2022/12/19 16:13:34;;;;;;;;;;;15.60;36.40;;;;;;8332252;28;20393;-45
2022/12/19 16:17:34;;;;;;;;;;;15.60;36.40;;;;;;8331871;28;20017;-44
2022/12/19 16:21:35;;;;;;;;;;;15.60;36.40;;;;;;8332354;28;19914;-44
2022/12/19 16:25:40;;;;;;;;;;;15.60;36.40;;;;;;8331839;28;20267;-44
2022/12/19 16:29:40;;;;;;;;;;;15.60;36.40;;;;;;8332411;28;19917;-46
2022/12/19 16:33:40;;;;;;;;;;;15.60;36.40;;;;;;8332268;28;20281;-44
2022/12/19 16:37:41;;;;;;;;;;;15.60;36.40;;;;;;8331544;28;20377;-46
2022/12/19 16:41:42;;;;;;;;;;;15.60;36.40;;;;;;8332096;28;19917;-45
2022/12/19 16:45:43;;;;;;;;;;;15.60;36.40;;;;;;8331937;28;19932;-44
2022/12/19 16:49:44;;;;;;;;;;;15.50;36.90;;;;;;8330890;28;19917;-47
2022/12/19 16:53:44;;;;;;;;;;;15.60;36.50;;;;;;8331843;28;19988;-44
2022/12/19 16:57:47;;;;;;;;;;;15.60;36.40;;;;;;8331483;28;19940;-44
2022/12/19 17:01:47;;;;;;;;;;;15.50;36.40;;;;;;8330857;28;19921;-45
2022/12/19 17:05:48;;;;;;;;;;;15.50;36.40;;;;;;8331363;28;20393;-45
2022/12/19 17:09:48;;;;;;;;;;;15.60;36.50;;;;;;8322306;28;19924;-45
2022/12/19 17:13:50;;;;;;;;;;;15.60;36.40;;;;;;8325355;28;19917;-45
2022/12/19 17:17:52;;;;;;;;;;;15.60;36.50;;;;;;8330739;28;19960;-42
2022/12/19 17:21:52;;;;;;;;;;;15.60;36.50;;;;;;8330634;28;19913;-44
2022/12/19 17:25:53;;;;;;;;;;;15.60;36.40;;;;;;8330063;28;19976;-44
2022/12/19 17:29:54;;;;;;;;;;;15.70;36.40;;;;;;8330747;28;19995;-44
2022/12/19 17:33:56;;;;;;;;;;;15.70;36.40;;;;;;8330285;28;19918;-43
2022/12/19 17:37:57;;;;;;;;;;;15.70;36.50;;;;;;8329663;28;20374;-44
2022/12/19 17:41:59;;;;;;;;;;;15.70;36.30;;;;;;8330406;28;19913;-44
2022/12/19 17:46:00;;;;;;;;;;;15.70;36.30;;;;;;8330198;28;19931;-45
2022/12/19 17:50:00;;;;;;;;;;;15.70;36.30;;;;;;8330049;28;19996;-44
2022/12/19 17:54:01;;;;;;;;;;;15.80;36.30;;;;;;8329822;28;19921;-43
2022/12/19 17:58:01;;;;;;;;;;;15.70;36.30;;;;;;8329702;28;20393;-42
2022/12/19 18:02:02;;;;;;;;;;;15.70;36.30;;;;;;8340897;28;19917;-44
2022/12/19 18:06:02;;;;;;;;;;;15.70;36.30;;;;;;8341166;28;19913;-44
2022/12/19 18:10:12;;;;;;;;;;;15.70;36.30;;;;;;8340681;28;19921;-45
2022/12/19 18:14:12;;;;;;;;;;;15.70;36.30;;;;;;8340638;28;20362;-43
2022/12/19 18:18:13;;;;;;;;;;;15.70;36.30;;;;;;8340489;28;19932;-44
2022/12/19 18:22:14;;;;;;;;;;;15.70;36.40;;;;;;8340246;28;19917;-44
2022/12/19 18:26:14;;;;;;;;;;;15.70;36.40;;;;;;8340535;28;19920;-44
2022/12/19 18:30:15;;;;;;;;;;;15.70;36.30;;;;;;8339227;28;20390;-43
2022/12/19 18:34:17;;;;;;;;;;;15.70;36.40;;;;;;8339973;28;20008;-43
2022/12/19 18:38:22;;;;;;;;;;;15.70;36.40;;;;;;8340175;28;20016;-44
2022/12/19 18:42:22;;;;;;;;;;;15.70;36.40;;;;;;8340568;28;19913;-45
2022/12/19 18:46:25;;;;;;;;;;;15.60;36.40;;;;;;8339775;28;19935;-46
2022/12/19 18:50:25;;;;;;;;;;;15.60;36.40;;;;;;8340642;28;19913;-44
2022/12/19 18:54:26;;;;;;;;;;;15.60;36.50;;;;;;8340230;28;19924;-43
2022/12/19 18:58:27;;;;;;;;;;;15.60;36.40;;;;;;8339607;28;19932;-43
2022/12/19 19:02:27;;;;;;;;;;;15.60;36.40;;;;;;8339864;28;20012;-44
2022/12/19 19:06:29;;;;;;;;;;;15.60;36.40;;;;;;8340197;28;20293;-44
2022/12/19 19:10:30;;;;;;;;;;;15.60;36.50;;;;;;8337705;28;20349;-45
2022/12/19 19:14:31;;;;;;;;;;;15.60;36.40;;;;;;8335023;28;20390;-44
2022/12/19 19:18:37;;;;;;;;;;;15.60;36.40;;;;;;8334404;28;20023;-44
2022/12/19 19:22:37;;;;;;;;;;;15.60;36.40;;;;;;8334059;28;20370;-44
2022/12/19 19:26:38;;;;;;;;;;;15.60;36.40;;;;;;8334310;28;19913;-44
2022/12/19 19:30:39;;;;;;;;;;;15.60;36.40;;;;;;8334663;28;19919;-43
2022/12/19 19:34:39;;;;;;;;;;;15.60;36.40;;;;;;8333787;28;19921;-43
2022/12/19 19:38:42;;;;;;;;;;;15.60;36.40;;;;;;8333977;28;19929;-44
2022/12/19 19:42:42;;;;;;;;;;;15.60;36.40;;;;;;8333837;28;19917;-44
2022/12/19 19:46:43;;;;;;;;;;;15.60;36.40;;;;;;8333304;28;19944;-44
2022/12/19 19:50:45;;;;;;;;;;;15.60;36.50;;;;;;8333991;28;19920;-43
2022/12/19 19:54:45;;;;;;;;;;;15.50;36.40;;;;;;8333571;28;19924;-43
2022/12/19 19:58:46;;;;;;;;;;;15.60;36.50;;;;;;8332753;28;20313;-44
2022/12/19 20:02:46;;;;;;;;;;;15.60;36.50;;;;;;8333180;28;19917;-43
2022/12/19 20:06:47;;;;;;;;;;;15.50;36.50;;;;;;8332087;28;20371;-44
2022/12/19 20:10:52;;;;;;;;;;;15.50;36.50;;;;;;8332676;28;19913;-42
2022/12/19 20:14:53;;;;;;;;;;;15.50;36.50;;;;;;8333001;28;19917;-43
2022/12/19 20:18:53;;;;;;;;;;;15.50;36.40;;;;;;8332858;28;19925;-44
2022/12/19 20:22:54;;;;;;;;;;;15.60;36.50;;;;;;8331000;28;20378;-44
2022/12/19 20:26:55;;;;;;;;;;;15.50;36.50;;;;;;8332609;28;19977;-44
2022/12/19 20:30:55;;;;;;;;;;;15.60;36.50;;;;;;8332617;28;19939;-44
2022/12/19 20:34:56;;;;;;;;;;;15.50;36.50;;;;;;8331845;28;19924;-45
2022/12/19 20:38:56;;;;;;;;;;;15.50;36.50;;;;;;8332195;28;19931;-43
2022/12/19 20:42:56;;;;;;;;;;;15.50;36.40;;;;;;8331967;28;19932;-44
2022/12/19 20:46:57;;;;;;;;;;;15.50;36.50;;;;;;8331484;28;20293;-44
2022/12/19 20:50:59;;;;;;;;;;;15.50;36.50;;;;;;8331932;28;19932;-44
2022/12/19 20:54:59;;;;;;;;;;;15.50;36.50;;;;;;8331799;28;19923;-44
2022/12/19 20:59:00;;;;;;;;;;;15.50;36.50;;;;;;8331000;28;19947;-44
2022/12/19 21:03:00;;;;;;;;;;;15.60;36.50;;;;;;8331415;28;19917;-44
2022/12/19 21:07:01;;;;;;;;;;;15.60;36.50;;;;;;8331128;28;19940;-43
2022/12/19 21:11:02;;;;;;;;;;;15.60;36.60;;;;;;8331624;28;19913;-45
2022/12/19 21:15:02;;;;;;;;;;;15.60;36.50;;;;;;8331367;28;19917;-44
2022/12/19 21:19:03;;;;;;;;;;;15.60;36.40;;;;;;8330400;28;19921;-44
2022/12/19 21:23:03;;;;;;;;;;;15.70;36.50;;;;;;8330722;28;20337;-44
2022/12/19 21:27:04;;;;;;;;;;;15.70;36.40;;;;;;8330890;28;19921;-44
2022/12/19 21:31:06;;;;;;;;;;;15.70;36.40;;;;;;8330359;28;19917;-43
2022/12/19 21:35:06;;;;;;;;;;;15.70;36.40;;;;;;8330343;28;19924;-43
2022/12/19 21:39:07;;;;;;;;;;;15.70;36.40;;;;;;8330692;28;19953;-42
2022/12/19 21:43:07;;;;;;;;;;;15.70;36.40;;;;;;8330103;28;20020;-42
2022/12/19 21:47:08;;;;;;;;;;;15.70;36.40;;;;;;8330555;28;19914;-43
2022/12/19 21:51:09;;;;;;;;;;;15.70;36.40;;;;;;8330472;28;19921;-43
2022/12/19 21:55:09;;;;;;;;;;;15.60;36.40;;;;;;8329228;28;20004;-44
2022/12/19 21:59:12;;;;;;;;;;;15.60;36.50;;;;;;8330011;28;19932;-43
2022/12/19 22:03:12;;;;;;;;;;;15.60;36.40;;;;;;8330105;28;19963;-43
2022/12/19 22:07:12;;;;;;;;;;;15.60;36.50;;;;;;8329901;28;19913;-43
2022/12/19 22:11:17;;;;;;;;;;;15.60;36.60;;;;;;8330085;28;19917;-43
2022/12/19 22:15:18;;;;;;;;;;;15.50;36.50;;;;;;8330002;28;19917;-42
2022/12/19 22:19:18;;;;;;;;;;;15.50;36.50;;;;;;8329456;28;20299;-43
2022/12/19 22:23:19;;;;;;;;;;;15.50;36.50;;;;;;8330095;28;19917;-42
2022/12/19 22:27:19;;;;;;;;;;;15.50;36.50;;;;;;8330070;28;19913;-43
2022/12/19 22:31:30;;;;;;;;;;;15.50;37.00;;;;;;8329290;28;19963;-43
2022/12/19 22:35:32;;;;;;;;;;;15.60;36.50;;;;;;8329831;28;20386;-43
2022/12/19 22:39:32;;;;;;;;;;;15.60;36.50;;;;;;8329716;28;20301;-43
2022/12/19 22:43:34;;;;;;;;;;;15.60;36.50;;;;;;8329024;28;20011;-43
2022/12/19 22:47:34;;;;;;;;;;;15.60;36.50;;;;;;8333516;28;19917;-43
2022/12/19 22:51:35;;;;;;;;;;;15.60;36.40;;;;;;8335950;28;20367;-44
2022/12/19 22:55:35;;;;;;;;;;;15.70;36.50;;;;;;8335318;28;19917;-44
2022/12/19 22:59:36;;;;;;;;;;;15.70;36.40;;;;;;8335384;28;19925;-43
2022/12/19 23:03:36;;;;;;;;;;;15.70;36.40;;;;;;8334265;28;20004;-43
2022/12/19 23:07:37;;;;;;;;;;;15.70;36.40;;;;;;8333949;28;20317;-43
2022/12/19 23:11:38;;;;;;;;;;;15.70;36.40;;;;;;8334787;28;19953;-43
2022/12/19 23:15:39;;;;;;;;;;;15.70;36.40;;;;;;8334874;28;19921;-43
2022/12/19 23:19:39;;;;;;;;;;;15.70;36.40;;;;;;8334256;28;19932;-43
2022/12/19 23:23:41;;;;;;;;;;;15.70;36.40;;;;;;8334563;28;20449;-42
2022/12/19 23:27:42;;;;;;;;;;;15.70;36.40;;;;;;8334569;28;19914;-43
2022/12/19 23:31:44;;;;;;;;;;;15.70;36.40;;;;;;8333998;28;19917;-43
2022/12/19 23:35:44;;;;;;;;;;;15.70;36.50;;;;;;8334556;28;19921;-44
2022/12/19 23:39:45;;;;;;;;;;;15.70;36.40;;;;;;8334118;28;19929;-44
2022/12/19 23:43:45;;;;;;;;;;;15.70;36.40;;;;;;8333731;28;20008;-44